sensor_id;sensor_type;location;lat;lon;timestamp;P1;durP1;ratioP1;P2;durP2;ratioP2
41436;SDS011;27178;49.460;10.850;2022-07-10T00:01:02;1.90;;;1.80;;
41436;SDS011;27178;49.460;10.850;2022-07-10T00:03:32;2.42;;;1.98;;
41436;SDS011;27178;49.460;10.850;2022-07-10T00:06:00;5.05;;;1.95;;
41436;SDS011;27178;49.460;10.850;2022-07-10T00:08:28;2.00;;;1.90;;
41436;SDS011;27178;49.460;10.850;2022-07-10T00:10:56;1.77;;;1.67;;
41436;SDS011;27178;49.460;10.850;2022-07-10T00:13:24;2.22;;;1.67;;
41436;SDS011;27178;49.460;10.850;2022-07-10T00:15:52;3.30;;;1.70;;
41436;SDS011;27178;49.460;10.850;2022-07-10T00:18:21;2.03;;;1.88;;
41436;SDS011;27178;49.460;10.850;2022-07-10T00:20:50;1.73;;;1.63;;
41436;SDS011;27178;49.460;10.850;2022-07-10T00:23:19;2.13;;;1.92;;
41436;SDS011;27178;49.460;10.850;2022-07-10T00:25:47;2.40;;;2.13;;
41436;SDS011;27178;49.460;10.850;2022-07-10T00:28:15;2.42;;;1.75;;
41436;SDS011;27178;49.460;10.850;2022-07-10T00:30:43;1.95;;;1.85;;
41436;SDS011;27178;49.460;10.850;2022-07-10T00:33:11;2.00;;;1.90;;
41436;SDS011;27178;49.460;10.850;2022-07-10T00:35:40;2.10;;;1.90;;
41436;SDS011;27178;49.460;10.850;2022-07-10T00:38:09;2.53;;;2.20;;
41436;SDS011;27178;49.460;10.850;2022-07-10T00:40:37;2.28;;;2.08;;
41436;SDS011;27178;49.460;10.850;2022-07-10T00:43:07;2.40;;;2.20;;
41436;SDS011;27178;49.460;10.850;2022-07-10T00:45:36;2.10;;;1.90;;
41436;SDS011;27178;49.460;10.850;2022-07-10T00:48:04;2.17;;;1.98;;
41436;SDS011;27178;49.460;10.850;2022-07-10T00:50:33;3.40;;;1.95;;
41436;SDS011;27178;49.460;10.850;2022-07-10T00:53:01;2.97;;;1.80;;
41436;SDS011;27178;49.460;10.850;2022-07-10T00:55:31;2.65;;;1.90;;
41436;SDS011;27178;49.460;10.850;2022-07-10T00:58:01;3.72;;;1.90;;
41436;SDS011;27178;49.460;10.850;2022-07-10T01:00:30;2.50;;;2.30;;
41436;SDS011;27178;49.460;10.850;2022-07-10T01:02:58;2.80;;;2.10;;
41436;SDS011;27178;49.460;10.850;2022-07-10T01:05:27;2.55;;;2.35;;
41436;SDS011;27178;49.460;10.850;2022-07-10T01:07:55;2.75;;;2.20;;
41436;SDS011;27178;49.460;10.850;2022-07-10T01:10:23;2.65;;;2.45;;
41436;SDS011;27178;49.460;10.850;2022-07-10T01:12:53;2.63;;;2.42;;
41436;SDS011;27178;49.460;10.850;2022-07-10T01:15:22;2.42;;;2.22;;
41436;SDS011;27178;49.460;10.850;2022-07-10T01:17:50;2.45;;;2.22;;
41436;SDS011;27178;49.460;10.850;2022-07-10T01:20:19;2.45;;;2.25;;
41436;SDS011;27178;49.460;10.850;2022-07-10T01:22:49;3.00;;;2.70;;
41436;SDS011;27178;49.460;10.850;2022-07-10T01:25:17;2.67;;;2.47;;
41436;SDS011;27178;49.460;10.850;2022-07-10T01:27:45;2.72;;;2.25;;
41436;SDS011;27178;49.460;10.850;2022-07-10T01:30:13;2.70;;;2.50;;
41436;SDS011;27178;49.460;10.850;2022-07-10T01:32:41;2.42;;;2.22;;
41436;SDS011;27178;49.460;10.850;2022-07-10T01:35:10;2.45;;;2.25;;
41436;SDS011;27178;49.460;10.850;2022-07-10T01:37:38;2.72;;;2.47;;
41436;SDS011;27178;49.460;10.850;2022-07-10T01:40:08;3.08;;;2.35;;
41436;SDS011;27178;49.460;10.850;2022-07-10T01:42:36;2.03;;;1.85;;
41436;SDS011;27178;49.460;10.850;2022-07-10T01:45:05;2.42;;;2.25;;
41436;SDS011;27178;49.460;10.850;2022-07-10T01:47:35;2.70;;;2.50;;
41436;SDS011;27178;49.460;10.850;2022-07-10T01:50:04;2.95;;;2.53;;
41436;SDS011;27178;49.460;10.850;2022-07-10T01:52:33;2.80;;;2.60;;
41436;SDS011;27178;49.460;10.850;2022-07-10T01:55:01;2.65;;;2.35;;
41436;SDS011;27178;49.460;10.850;2022-07-10T01:57:32;2.72;;;2.53;;
41436;SDS011;27178;49.460;10.850;2022-07-10T02:00:00;3.08;;;2.60;;
41436;SDS011;27178;49.460;10.850;2022-07-10T02:02:28;2.50;;;2.30;;
41436;SDS011;27178;49.460;10.850;2022-07-10T02:04:56;2.83;;;2.55;;
41436;SDS011;27178;49.460;10.850;2022-07-10T02:07:23;3.53;;;3.03;;
41436;SDS011;27178;49.460;10.850;2022-07-10T02:09:53;3.17;;;2.90;;
41436;SDS011;27178;49.460;10.850;2022-07-10T02:12:21;4.15;;;3.75;;
41436;SDS011;27178;49.460;10.850;2022-07-10T02:14:50;5.22;;;3.25;;
41436;SDS011;27178;49.460;10.850;2022-07-10T02:17:19;3.60;;;3.25;;
41436;SDS011;27178;49.460;10.850;2022-07-10T02:19:47;4.57;;;3.50;;
41436;SDS011;27178;49.460;10.850;2022-07-10T02:22:15;3.42;;;3.13;;
41436;SDS011;27178;49.460;10.850;2022-07-10T02:24:43;3.42;;;2.90;;
41436;SDS011;27178;49.460;10.850;2022-07-10T02:27:12;2.40;;;2.20;;
41436;SDS011;27178;49.460;10.850;2022-07-10T02:29:40;2.63;;;2.42;;
41436;SDS011;27178;49.460;10.850;2022-07-10T02:32:09;2.63;;;2.42;;
41436;SDS011;27178;49.460;10.850;2022-07-10T02:34:38;2.30;;;2.10;;
41436;SDS011;27178;49.460;10.850;2022-07-10T02:37:06;3.65;;;1.98;;
41436;SDS011;27178;49.460;10.850;2022-07-10T02:39:34;2.38;;;2.22;;
41436;SDS011;27178;49.460;10.850;2022-07-10T02:42:03;2.75;;;2.20;;
41436;SDS011;27178;49.460;10.850;2022-07-10T02:44:31;2.42;;;2.22;;
41436;SDS011;27178;49.460;10.850;2022-07-10T02:46:59;2.85;;;2.53;;
41436;SDS011;27178;49.460;10.850;2022-07-10T02:49:29;4.47;;;2.22;;
41436;SDS011;27178;49.460;10.850;2022-07-10T02:51:58;3.53;;;2.85;;
41436;SDS011;27178;49.460;10.850;2022-07-10T02:54:26;3.65;;;2.60;;
41436;SDS011;27178;49.460;10.850;2022-07-10T02:56:54;3.72;;;2.67;;
41436;SDS011;27178;49.460;10.850;2022-07-10T02:59:22;4.05;;;2.97;;
41436;SDS011;27178;49.460;10.850;2022-07-10T03:01:51;3.60;;;3.10;;
41436;SDS011;27178;49.460;10.850;2022-07-10T03:04:19;5.90;;;2.70;;
41436;SDS011;27178;49.460;10.850;2022-07-10T03:06:48;3.85;;;2.97;;
41436;SDS011;27178;49.460;10.850;2022-07-10T03:09:16;4.18;;;3.17;;
41436;SDS011;27178;49.460;10.850;2022-07-10T03:11:45;4.78;;;3.05;;
41436;SDS011;27178;49.460;10.850;2022-07-10T03:14:13;6.00;;;3.53;;
41436;SDS011;27178;49.460;10.850;2022-07-10T03:16:41;5.20;;;3.35;;
41436;SDS011;27178;49.460;10.850;2022-07-10T03:19:09;5.82;;;2.72;;
41436;SDS011;27178;49.460;10.850;2022-07-10T03:21:37;2.70;;;1.88;;
41436;SDS011;27178;49.460;10.850;2022-07-10T03:24:07;2.78;;;1.85;;
41436;SDS011;27178;49.460;10.850;2022-07-10T03:26:35;1.67;;;1.58;;
41436;SDS011;27178;49.460;10.850;2022-07-10T03:29:03;2.65;;;1.90;;
41436;SDS011;27178;49.460;10.850;2022-07-10T03:31:31;7.35;;;2.80;;
41436;SDS011;27178;49.460;10.850;2022-07-10T03:34:00;5.45;;;2.63;;
41436;SDS011;27178;49.460;10.850;2022-07-10T03:36:28;2.65;;;2.30;;
41436;SDS011;27178;49.460;10.850;2022-07-10T03:38:56;3.05;;;2.25;;
41436;SDS011;27178;49.460;10.850;2022-07-10T03:41:25;2.53;;;2.30;;
41436;SDS011;27178;49.460;10.850;2022-07-10T03:43:53;3.15;;;1.83;;
41436;SDS011;27178;49.460;10.850;2022-07-10T03:46:22;3.20;;;1.77;;
41436;SDS011;27178;49.460;10.850;2022-07-10T03:48:50;2.35;;;1.60;;
41436;SDS011;27178;49.460;10.850;2022-07-10T03:51:18;2.22;;;1.92;;
41436;SDS011;27178;49.460;10.850;2022-07-10T03:53:46;4.53;;;2.25;;
41436;SDS011;27178;49.460;10.850;2022-07-10T03:56:14;3.08;;;1.90;;
41436;SDS011;27178;49.460;10.850;2022-07-10T03:58:58;1.60;;;1.50;;
41436;SDS011;27178;49.460;10.850;2022-07-10T04:01:26;2.08;;;1.58;;
41436;SDS011;27178;49.460;10.850;2022-07-10T04:03:54;4.30;;;1.90;;
41436;SDS011;27178;49.460;10.850;2022-07-10T04:06:23;5.43;;;1.80;;
41436;SDS011;27178;49.460;10.850;2022-07-10T04:08:51;3.90;;;1.85;;
41436;SDS011;27178;49.460;10.850;2022-07-10T04:11:19;2.95;;;1.98;;
41436;SDS011;27178;49.460;10.850;2022-07-10T04:13:47;2.85;;;1.48;;
41436;SDS011;27178;49.460;10.850;2022-07-10T04:16:17;2.25;;;1.40;;
41436;SDS011;27178;49.460;10.850;2022-07-10T04:18:45;2.70;;;1.55;;
41436;SDS011;27178;49.460;10.850;2022-07-10T04:21:14;2.42;;;1.73;;
41436;SDS011;27178;49.460;10.850;2022-07-10T04:23:42;2.45;;;1.60;;
41436;SDS011;27178;49.460;10.850;2022-07-10T04:26:10;2.75;;;1.70;;
41436;SDS011;27178;49.460;10.850;2022-07-10T04:28:38;3.35;;;1.52;;
41436;SDS011;27178;49.460;10.850;2022-07-10T04:31:07;2.45;;;1.60;;
41436;SDS011;27178;49.460;10.850;2022-07-10T04:33:36;3.67;;;1.65;;
41436;SDS011;27178;49.460;10.850;2022-07-10T04:36:05;2.97;;;1.67;;
41436;SDS011;27178;49.460;10.850;2022-07-10T04:38:33;2.33;;;1.60;;
41436;SDS011;27178;49.460;10.850;2022-07-10T04:41:01;2.25;;;1.42;;
41436;SDS011;27178;49.460;10.850;2022-07-10T04:43:30;2.97;;;1.35;;
41436;SDS011;27178;49.460;10.850;2022-07-10T04:45:58;1.75;;;1.30;;
41436;SDS011;27178;49.460;10.850;2022-07-10T04:48:26;2.42;;;1.33;;
41436;SDS011;27178;49.460;10.850;2022-07-10T04:50:56;2.50;;;1.63;;
41436;SDS011;27178;49.460;10.850;2022-07-10T04:53:24;2.22;;;1.38;;
41436;SDS011;27178;49.460;10.850;2022-07-10T04:55:52;1.35;;;1.17;;
41436;SDS011;27178;49.460;10.850;2022-07-10T04:58:20;3.40;;;1.33;;
41436;SDS011;27178;49.460;10.850;2022-07-10T05:00:48;2.45;;;1.38;;
41436;SDS011;27178;49.460;10.850;2022-07-10T05:03:17;3.72;;;1.55;;
41436;SDS011;27178;49.460;10.850;2022-07-10T05:05:45;2.45;;;1.00;;
41436;SDS011;27178;49.460;10.850;2022-07-10T05:08:14;2.15;;;1.50;;
41436;SDS011;27178;49.460;10.850;2022-07-10T05:10:42;2.08;;;1.40;;
41436;SDS011;27178;49.460;10.850;2022-07-10T05:13:11;2.85;;;1.65;;
41436;SDS011;27178;49.460;10.850;2022-07-10T05:15:39;2.63;;;1.33;;
41436;SDS011;27178;49.460;10.850;2022-07-10T05:18:07;2.15;;;1.83;;
41436;SDS011;27178;49.460;10.850;2022-07-10T05:20:35;2.72;;;1.55;;
41436;SDS011;27178;49.460;10.850;2022-07-10T05:23:07;3.58;;;1.42;;
41436;SDS011;27178;49.460;10.850;2022-07-10T05:25:37;2.45;;;1.70;;
41436;SDS011;27178;49.460;10.850;2022-07-10T05:28:06;5.13;;;1.77;;
41436;SDS011;27178;49.460;10.850;2022-07-10T05:30:34;1.40;;;1.13;;
41436;SDS011;27178;49.460;10.850;2022-07-10T05:33:02;2.15;;;1.17;;
41436;SDS011;27178;49.460;10.850;2022-07-10T05:35:31;2.25;;;1.20;;
41436;SDS011;27178;49.460;10.850;2022-07-10T05:37:59;2.80;;;1.00;;
41436;SDS011;27178;49.460;10.850;2022-07-10T05:40:27;1.77;;;0.90;;
41436;SDS011;27178;49.460;10.850;2022-07-10T05:42:57;0.90;;;0.55;;
41436;SDS011;27178;49.460;10.850;2022-07-10T05:45:25;1.33;;;0.70;;
41436;SDS011;27178;49.460;10.850;2022-07-10T05:47:53;2.15;;;1.20;;
41436;SDS011;27178;49.460;10.850;2022-07-10T05:50:21;1.65;;;0.73;;
41436;SDS011;27178;49.460;10.850;2022-07-10T05:52:49;4.53;;;0.77;;
41436;SDS011;27178;49.460;10.850;2022-07-10T05:55:18;2.08;;;1.10;;
41436;SDS011;27178;49.460;10.850;2022-07-10T05:57:46;1.40;;;0.77;;
41436;SDS011;27178;49.460;10.850;2022-07-10T06:00:15;1.27;;;0.98;;
41436;SDS011;27178;49.460;10.850;2022-07-10T06:02:43;2.38;;;1.00;;
41436;SDS011;27178;49.460;10.850;2022-07-10T06:05:12;1.85;;;0.80;;
41436;SDS011;27178;49.460;10.850;2022-07-10T06:07:40;2.70;;;1.33;;
41436;SDS011;27178;49.460;10.850;2022-07-10T06:10:08;0.77;;;0.50;;
41436;SDS011;27178;49.460;10.850;2022-07-10T06:12:37;1.80;;;0.88;;
41436;SDS011;27178;49.460;10.850;2022-07-10T06:15:05;6.15;;;0.82;;
41436;SDS011;27178;49.460;10.850;2022-07-10T06:17:37;1.13;;;0.75;;
41436;SDS011;27178;49.460;10.850;2022-07-10T06:20:05;1.23;;;0.70;;
41436;SDS011;27178;49.460;10.850;2022-07-10T06:22:34;1.10;;;0.63;;
41436;SDS011;27178;49.460;10.850;2022-07-10T06:25:03;3.38;;;0.85;;
41436;SDS011;27178;49.460;10.850;2022-07-10T06:27:33;3.45;;;1.60;;
41436;SDS011;27178;49.460;10.850;2022-07-10T06:30:01;2.90;;;0.90;;
41436;SDS011;27178;49.460;10.850;2022-07-10T06:32:29;2.40;;;1.00;;
41436;SDS011;27178;49.460;10.850;2022-07-10T06:34:59;1.13;;;0.77;;
41436;SDS011;27178;49.460;10.850;2022-07-10T06:37:28;1.95;;;1.02;;
41436;SDS011;27178;49.460;10.850;2022-07-10T06:39:56;2.38;;;1.23;;
41436;SDS011;27178;49.460;10.850;2022-07-10T06:42:24;1.98;;;1.27;;
41436;SDS011;27178;49.460;10.850;2022-07-10T06:44:53;2.08;;;0.90;;
41436;SDS011;27178;49.460;10.850;2022-07-10T06:47:21;2.25;;;1.13;;
41436;SDS011;27178;49.460;10.850;2022-07-10T06:50:09;4.32;;;1.10;;
41436;SDS011;27178;49.460;10.850;2022-07-10T06:52:38;3.95;;;1.10;;
41436;SDS011;27178;49.460;10.850;2022-07-10T06:55:06;3.13;;;1.30;;
41436;SDS011;27178;49.460;10.850;2022-07-10T06:57:35;2.10;;;0.82;;
41436;SDS011;27178;49.460;10.850;2022-07-10T07:00:06;3.80;;;1.50;;
41436;SDS011;27178;49.460;10.850;2022-07-10T07:02:36;0.85;;;0.82;;
41436;SDS011;27178;49.460;10.850;2022-07-10T07:05:04;1.67;;;1.15;;
41436;SDS011;27178;49.460;10.850;2022-07-10T07:07:35;0.90;;;0.82;;
41436;SDS011;27178;49.460;10.850;2022-07-10T07:10:04;1.13;;;0.70;;
41436;SDS011;27178;49.460;10.850;2022-07-10T07:15:11;0.90;;;0.55;;
41436;SDS011;27178;49.460;10.850;2022-07-10T07:17:41;5.80;;;0.90;;
41436;SDS011;27178;49.460;10.850;2022-07-10T07:20:24;2.20;;;1.02;;
41436;SDS011;27178;49.460;10.850;2022-07-10T07:23:07;2.13;;;1.00;;
41436;SDS011;27178;49.460;10.850;2022-07-10T07:25:39;1.92;;;0.80;;
41436;SDS011;27178;49.460;10.850;2022-07-10T07:30:44;2.28;;;1.13;;
41436;SDS011;27178;49.460;10.850;2022-07-10T07:33:13;1.92;;;1.27;;
41436;SDS011;27178;49.460;10.850;2022-07-10T07:35:43;0.73;;;0.70;;
41436;SDS011;27178;49.460;10.850;2022-07-10T07:38:12;0.52;;;0.50;;
41436;SDS011;27178;49.460;10.850;2022-07-10T07:40:42;1.98;;;0.60;;
41436;SDS011;27178;49.460;10.850;2022-07-10T07:43:10;1.35;;;0.85;;
41436;SDS011;27178;49.460;10.850;2022-07-10T07:45:39;1.08;;;0.63;;
41436;SDS011;27178;49.460;10.850;2022-07-10T07:48:07;0.68;;;0.60;;
41436;SDS011;27178;49.460;10.850;2022-07-10T07:50:36;1.30;;;0.95;;
41436;SDS011;27178;49.460;10.850;2022-07-10T07:53:04;2.60;;;1.00;;
41436;SDS011;27178;49.460;10.850;2022-07-10T07:55:34;0.82;;;0.70;;
41436;SDS011;27178;49.460;10.850;2022-07-10T07:58:03;1.55;;;0.70;;
41436;SDS011;27178;49.460;10.850;2022-07-10T08:00:31;1.13;;;1.05;;
41436;SDS011;27178;49.460;10.850;2022-07-10T08:03:00;1.30;;;1.20;;
41436;SDS011;27178;49.460;10.850;2022-07-10T08:05:29;2.13;;;1.70;;
41436;SDS011;27178;49.460;10.850;2022-07-10T08:07:57;2.65;;;1.58;;
41436;SDS011;27178;49.460;10.850;2022-07-10T08:10:31;1.08;;;0.90;;
41436;SDS011;27178;49.460;10.850;2022-07-10T08:13:00;0.65;;;0.65;;
41436;SDS011;27178;49.460;10.850;2022-07-10T08:15:29;1.10;;;0.77;;
41436;SDS011;27178;49.460;10.850;2022-07-10T08:17:58;2.20;;;0.70;;
41436;SDS011;27178;49.460;10.850;2022-07-10T08:20:27;0.38;;;0.38;;
41436;SDS011;27178;49.460;10.850;2022-07-10T08:22:56;0.88;;;0.50;;
41436;SDS011;27178;49.460;10.850;2022-07-10T08:25:26;0.98;;;0.60;;
41436;SDS011;27178;49.460;10.850;2022-07-10T08:27:54;0.77;;;0.52;;
41436;SDS011;27178;49.460;10.850;2022-07-10T08:30:23;0.52;;;0.30;;
41436;SDS011;27178;49.460;10.850;2022-07-10T08:32:52;1.42;;;0.77;;
41436;SDS011;27178;49.460;10.850;2022-07-10T08:35:20;0.60;;;0.60;;
41436;SDS011;27178;49.460;10.850;2022-07-10T08:37:48;0.32;;;0.30;;
41436;SDS011;27178;49.460;10.850;2022-07-10T08:40:16;0.95;;;0.47;;
41436;SDS011;27178;49.460;10.850;2022-07-10T08:42:45;1.05;;;0.60;;
41436;SDS011;27178;49.460;10.850;2022-07-10T08:45:13;0.65;;;0.57;;
41436;SDS011;27178;49.460;10.850;2022-07-10T08:47:44;1.02;;;0.77;;
41436;SDS011;27178;49.460;10.850;2022-07-10T08:50:15;1.58;;;0.65;;
41436;SDS011;27178;49.460;10.850;2022-07-10T08:52:48;1.63;;;1.02;;
41436;SDS011;27178;49.460;10.850;2022-07-10T08:55:23;1.88;;;1.00;;
41436;SDS011;27178;49.460;10.850;2022-07-10T08:57:52;0.70;;;0.50;;
41436;SDS011;27178;49.460;10.850;2022-07-10T09:00:22;1.15;;;0.45;;
41436;SDS011;27178;49.460;10.850;2022-07-10T09:02:52;0.77;;;0.57;;
41436;SDS011;27178;49.460;10.850;2022-07-10T09:05:21;1.38;;;0.50;;
41436;SDS011;27178;49.460;10.850;2022-07-10T09:07:49;2.08;;;0.73;;
41436;SDS011;27178;49.460;10.850;2022-07-10T09:10:18;0.75;;;0.73;;
41436;SDS011;27178;49.460;10.850;2022-07-10T09:12:49;1.48;;;0.50;;
41436;SDS011;27178;49.460;10.850;2022-07-10T09:15:19;0.68;;;0.50;;
41436;SDS011;27178;49.460;10.850;2022-07-10T09:17:51;1.27;;;0.82;;
41436;SDS011;27178;49.460;10.850;2022-07-10T09:20:23;0.50;;;0.50;;
41436;SDS011;27178;49.460;10.850;2022-07-10T09:22:52;1.45;;;0.75;;
41436;SDS011;27178;49.460;10.850;2022-07-10T09:25:20;1.20;;;0.70;;
41436;SDS011;27178;49.460;10.850;2022-07-10T09:27:52;0.85;;;0.68;;
41436;SDS011;27178;49.460;10.850;2022-07-10T09:30:30;0.90;;;0.70;;
41436;SDS011;27178;49.460;10.850;2022-07-10T09:33:17;1.42;;;0.68;;
41436;SDS011;27178;49.460;10.850;2022-07-10T09:38:55;0.60;;;0.60;;
41436;SDS011;27178;49.460;10.850;2022-07-10T09:41:25;1.10;;;0.73;;
41436;SDS011;27178;49.460;10.850;2022-07-10T09:43:54;1.92;;;0.80;;
41436;SDS011;27178;49.460;10.850;2022-07-10T09:46:25;1.25;;;0.75;;
41436;SDS011;27178;49.460;10.850;2022-07-10T09:49:02;1.60;;;0.45;;
41436;SDS011;27178;49.460;10.850;2022-07-10T09:51:32;0.43;;;0.43;;
41436;SDS011;27178;49.460;10.850;2022-07-10T09:54:01;0.80;;;0.40;;
41436;SDS011;27178;49.460;10.850;2022-07-10T09:56:33;1.85;;;0.65;;
41436;SDS011;27178;49.460;10.850;2022-07-10T09:59:08;1.48;;;1.20;;
41436;SDS011;27178;49.460;10.850;2022-07-10T10:01:40;0.65;;;0.55;;
41436;SDS011;27178;49.460;10.850;2022-07-10T10:04:13;1.33;;;0.65;;
41436;SDS011;27178;49.460;10.850;2022-07-10T10:06:42;1.17;;;0.52;;
41436;SDS011;27178;49.460;10.850;2022-07-10T10:09:15;0.47;;;0.47;;
41436;SDS011;27178;49.460;10.850;2022-07-10T10:11:52;6.22;;;4.80;;
41436;SDS011;27178;49.460;10.850;2022-07-10T10:14:24;5.03;;;4.28;;
41436;SDS011;27178;49.460;10.850;2022-07-10T10:16:54;4.95;;;4.55;;
41436;SDS011;27178;49.460;10.850;2022-07-10T10:19:25;3.13;;;2.47;;
41436;SDS011;27178;49.460;10.850;2022-07-10T10:22:23;2.03;;;1.52;;
41436;SDS011;27178;49.460;10.850;2022-07-10T10:24:53;3.55;;;1.10;;
41436;SDS011;27178;49.460;10.850;2022-07-10T10:27:22;2.35;;;1.00;;
41436;SDS011;27178;49.460;10.850;2022-07-10T10:29:51;0.82;;;0.70;;
41436;SDS011;27178;49.460;10.850;2022-07-10T10:32:21;1.15;;;0.98;;
41436;SDS011;27178;49.460;10.850;2022-07-10T10:34:51;1.00;;;0.88;;
41436;SDS011;27178;49.460;10.850;2022-07-10T10:37:33;0.88;;;0.70;;
41436;SDS011;27178;49.460;10.850;2022-07-10T10:40:04;1.67;;;0.75;;
41436;SDS011;27178;49.460;10.850;2022-07-10T10:42:33;0.68;;;0.50;;
41436;SDS011;27178;49.460;10.850;2022-07-10T10:48:00;1.17;;;0.93;;
41436;SDS011;27178;49.460;10.850;2022-07-10T10:50:51;1.90;;;0.63;;
41436;SDS011;27178;49.460;10.850;2022-07-10T10:53:22;1.27;;;0.88;;
41436;SDS011;27178;49.460;10.850;2022-07-10T10:58:50;1.17;;;0.77;;
41436;SDS011;27178;49.460;10.850;2022-07-10T11:01:26;0.75;;;0.70;;
41436;SDS011;27178;49.460;10.850;2022-07-10T11:04:12;1.23;;;0.80;;
41436;SDS011;27178;49.460;10.850;2022-07-10T11:06:43;1.08;;;0.80;;
41436;SDS011;27178;49.460;10.850;2022-07-10T11:09:25;1.40;;;0.77;;
41436;SDS011;27178;49.460;10.850;2022-07-10T11:11:59;0.57;;;0.50;;
41436;SDS011;27178;49.460;10.850;2022-07-10T11:14:28;1.17;;;0.70;;
41436;SDS011;27178;49.460;10.850;2022-07-10T11:16:57;0.77;;;0.70;;
41436;SDS011;27178;49.460;10.850;2022-07-10T11:19:26;1.85;;;1.00;;
41436;SDS011;27178;49.460;10.850;2022-07-10T11:22:03;0.85;;;0.80;;
41436;SDS011;27178;49.460;10.850;2022-07-10T11:30:45;1.02;;;0.60;;
41436;SDS011;27178;49.460;10.850;2022-07-10T11:33:14;1.35;;;0.90;;
41436;SDS011;27178;49.460;10.850;2022-07-10T11:35:44;0.93;;;0.77;;
41436;SDS011;27178;49.460;10.850;2022-07-10T11:38:19;2.20;;;0.73;;
41436;SDS011;27178;49.460;10.850;2022-07-10T11:40:48;0.80;;;0.77;;
41436;SDS011;27178;49.460;10.850;2022-07-10T11:43:16;0.95;;;0.57;;
41436;SDS011;27178;49.460;10.850;2022-07-10T11:45:46;2.10;;;1.08;;
41436;SDS011;27178;49.460;10.850;2022-07-10T11:48:18;1.30;;;0.90;;
41436;SDS011;27178;49.460;10.850;2022-07-10T11:50:47;1.52;;;0.90;;
41436;SDS011;27178;49.460;10.850;2022-07-10T11:53:23;1.08;;;0.60;;
41436;SDS011;27178;49.460;10.850;2022-07-10T11:55:51;1.15;;;0.90;;
41436;SDS011;27178;49.460;10.850;2022-07-10T11:58:20;1.27;;;0.80;;
41436;SDS011;27178;49.460;10.850;2022-07-10T12:01:01;1.13;;;0.80;;
41436;SDS011;27178;49.460;10.850;2022-07-10T12:03:33;0.50;;;0.43;;
41436;SDS011;27178;49.460;10.850;2022-07-10T12:06:02;1.80;;;0.68;;
41436;SDS011;27178;49.460;10.850;2022-07-10T12:08:45;0.73;;;0.70;;
41436;SDS011;27178;49.460;10.850;2022-07-10T12:11:14;1.23;;;0.55;;
41436;SDS011;27178;49.460;10.850;2022-07-10T12:13:44;1.65;;;0.80;;
41436;SDS011;27178;49.460;10.850;2022-07-10T12:16:13;0.88;;;0.55;;
41436;SDS011;27178;49.460;10.850;2022-07-10T12:18:42;0.35;;;0.35;;
41436;SDS011;27178;49.460;10.850;2022-07-10T12:21:11;0.82;;;0.50;;
41436;SDS011;27178;49.460;10.850;2022-07-10T12:23:42;0.88;;;0.73;;
41436;SDS011;27178;49.460;10.850;2022-07-10T12:26:14;1.85;;;0.60;;
41436;SDS011;27178;49.460;10.850;2022-07-10T12:28:49;0.68;;;0.50;;
41436;SDS011;27178;49.460;10.850;2022-07-10T12:31:27;0.60;;;0.60;;
41436;SDS011;27178;49.460;10.850;2022-07-10T12:33:58;0.73;;;0.50;;
41436;SDS011;27178;49.460;10.850;2022-07-10T12:36:42;0.75;;;0.47;;
41436;SDS011;27178;49.460;10.850;2022-07-10T12:39:11;0.52;;;0.25;;
41436;SDS011;27178;49.460;10.850;2022-07-10T12:41:56;1.23;;;0.88;;
41436;SDS011;27178;49.460;10.850;2022-07-10T12:44:29;1.98;;;0.95;;
41436;SDS011;27178;49.460;10.850;2022-07-10T12:47:02;1.10;;;0.63;;
41436;SDS011;27178;49.460;10.850;2022-07-10T12:49:48;0.52;;;0.52;;
41436;SDS011;27178;49.460;10.850;2022-07-10T12:52:21;0.77;;;0.45;;
41436;SDS011;27178;49.460;10.850;2022-07-10T12:55:09;0.98;;;0.47;;
41436;SDS011;27178;49.460;10.850;2022-07-10T12:57:48;0.68;;;0.50;;
41436;SDS011;27178;49.460;10.850;2022-07-10T13:00:19;5.00;;;0.80;;
41436;SDS011;27178;49.460;10.850;2022-07-10T13:02:49;0.82;;;0.50;;
41436;SDS011;27178;49.460;10.850;2022-07-10T13:05:24;1.13;;;0.47;;
41436;SDS011;27178;49.460;10.850;2022-07-10T13:08:03;0.38;;;0.32;;
41436;SDS011;27178;49.460;10.850;2022-07-10T13:10:33;0.40;;;0.32;;
41436;SDS011;27178;49.460;10.850;2022-07-10T13:13:07;0.50;;;0.30;;
41436;SDS011;27178;49.460;10.850;2022-07-10T13:15:35;1.50;;;0.73;;
41436;SDS011;27178;49.460;10.850;2022-07-10T13:18:07;0.75;;;0.30;;
41436;SDS011;27178;49.460;10.850;2022-07-10T13:20:35;0.85;;;0.40;;
41436;SDS011;27178;49.460;10.850;2022-07-10T13:23:03;0.88;;;0.45;;
41436;SDS011;27178;49.460;10.850;2022-07-10T13:25:31;0.17;;;0.17;;
41436;SDS011;27178;49.460;10.850;2022-07-10T13:28:00;0.50;;;0.40;;
41436;SDS011;27178;49.460;10.850;2022-07-10T13:30:30;0.63;;;0.60;;
41436;SDS011;27178;49.460;10.850;2022-07-10T13:32:58;0.85;;;0.85;;
41436;SDS011;27178;49.460;10.850;2022-07-10T13:35:27;0.88;;;0.70;;
41436;SDS011;27178;49.460;10.850;2022-07-10T13:37:56;2.45;;;0.52;;
41436;SDS011;27178;49.460;10.850;2022-07-10T13:40:26;2.63;;;0.47;;
41436;SDS011;27178;49.460;10.850;2022-07-10T13:42:54;0.55;;;0.40;;
41436;SDS011;27178;49.460;10.850;2022-07-10T13:45:23;1.52;;;0.70;;
41436;SDS011;27178;49.460;10.850;2022-07-10T13:47:54;1.38;;;0.80;;
41436;SDS011;27178;49.460;10.850;2022-07-10T13:50:23;7.22;;;0.80;;
41436;SDS011;27178;49.460;10.850;2022-07-10T13:52:51;1.60;;;0.50;;
41436;SDS011;27178;49.460;10.850;2022-07-10T13:55:20;1.42;;;0.63;;
41436;SDS011;27178;49.460;10.850;2022-07-10T13:57:48;1.05;;;0.60;;
41436;SDS011;27178;49.460;10.850;2022-07-10T14:00:16;0.98;;;0.47;;
41436;SDS011;27178;49.460;10.850;2022-07-10T14:02:44;0.80;;;0.52;;
41436;SDS011;27178;49.460;10.850;2022-07-10T14:05:14;0.77;;;0.43;;
41436;SDS011;27178;49.460;10.850;2022-07-10T14:07:42;2.17;;;0.55;;
41436;SDS011;27178;49.460;10.850;2022-07-10T14:10:11;0.63;;;0.50;;
41436;SDS011;27178;49.460;10.850;2022-07-10T14:12:39;0.60;;;0.47;;
41436;SDS011;27178;49.460;10.850;2022-07-10T14:15:08;2.10;;;0.70;;
41436;SDS011;27178;49.460;10.850;2022-07-10T14:17:36;1.50;;;0.60;;
41436;SDS011;27178;49.460;10.850;2022-07-10T14:20:04;1.90;;;0.82;;
41436;SDS011;27178;49.460;10.850;2022-07-10T14:22:35;1.83;;;0.80;;
41436;SDS011;27178;49.460;10.850;2022-07-10T14:25:04;1.30;;;0.85;;
41436;SDS011;27178;49.460;10.850;2022-07-10T14:27:32;0.82;;;0.60;;
41436;SDS011;27178;49.460;10.850;2022-07-10T14:30:00;1.20;;;0.52;;
41436;SDS011;27178;49.460;10.850;2022-07-10T14:32:28;0.65;;;0.55;;
41436;SDS011;27178;49.460;10.850;2022-07-10T14:34:56;1.10;;;0.57;;
41436;SDS011;27178;49.460;10.850;2022-07-10T14:37:24;1.30;;;0.55;;
41436;SDS011;27178;49.460;10.850;2022-07-10T14:39:54;0.90;;;0.50;;
41436;SDS011;27178;49.460;10.850;2022-07-10T14:42:22;0.70;;;0.40;;
41436;SDS011;27178;49.460;10.850;2022-07-10T14:44:50;0.73;;;0.60;;
41436;SDS011;27178;49.460;10.850;2022-07-10T14:47:18;3.63;;;0.75;;
41436;SDS011;27178;49.460;10.850;2022-07-10T14:49:46;1.05;;;0.47;;
41436;SDS011;27178;49.460;10.850;2022-07-10T14:52:14;7.57;;;0.75;;
41436;SDS011;27178;49.460;10.850;2022-07-10T14:54:46;1.55;;;0.57;;
41436;SDS011;27178;49.460;10.850;2022-07-10T14:57:18;3.13;;;0.77;;
41436;SDS011;27178;49.460;10.850;2022-07-10T14:59:46;1.92;;;0.82;;
41436;SDS011;27178;49.460;10.850;2022-07-10T15:02:14;1.05;;;0.47;;
41436;SDS011;27178;49.460;10.850;2022-07-10T15:04:42;1.90;;;0.55;;
41436;SDS011;27178;49.460;10.850;2022-07-10T15:07:10;0.57;;;0.52;;
41436;SDS011;27178;49.460;10.850;2022-07-10T15:09:38;2.50;;;0.47;;